Time;durP1;ratioP1;P1;durP2;ratioP2;P2;SDS_P1;SDS_P2;PMS_P1;PMS_P2;Temp;Humidity;BMP_temperature;BMP_pressure;BME280_temperature;BME280_humidity;BME280_pressure;Samples;Min_cycle;Max_cycle;Signal;HPM_P1;HPM_P2
2021/06/23 00:01:06;;;;;;;0.55;0.55;;;18.10;82.90;;;;;;5010006;28;20029;-78
2021/06/23 00:03:32;;;;;;;1.88;0.60;;;18.10;82.70;;;;;;4994817;28;20363;-78
2021/06/23 00:05:57;;;;;;;0.73;0.60;;;18.00;82.50;;;;;;4994891;28;20022;-78
2021/06/23 00:08:23;;;;;;;0.73;0.60;;;18.10;82.50;;;;;;4994789;28;20038;-78
2021/06/23 00:10:51;;;;;;;1.23;0.75;;;18.10;82.40;;;;;;4994635;28;20034;-77
2021/06/23 00:13:18;;;;;;;1.63;0.70;;;18.10;82.30;;;;;;4994681;28;20022;-77
2021/06/23 00:15:44;;;;;;;2.60;0.80;;;18.10;82.60;;;;;;4994666;28;20033;-78
2021/06/23 00:18:10;;;;;;;0.43;0.40;;;18.10;82.50;;;;;;4994724;28;20379;-78
2021/06/23 00:20:35;;;;;;;0.88;0.50;;;18.10;82.80;;;;;;5009589;28;20077;-78
2021/06/23 00:23:01;;;;;;;1.77;0.40;;;18.00;83.20;;;;;;4994492;28;20045;-77
2021/06/23 00:25:27;;;;;;;2.60;0.60;;;18.00;83.50;;;;;;4994491;28;20034;-77
2021/06/23 00:27:53;;;;;;;1.27;0.50;;;18.00;82.90;;;;;;4994474;28;20094;-77
2021/06/23 00:30:19;;;;;;;0.70;0.30;;;18.00;81.80;;;;;;4994340;28;20041;-76
2021/06/23 00:32:46;;;;;;;1.17;0.50;;;17.80;81.40;;;;;;4994295;28;20045;-78
2021/06/23 00:35:12;;;;;;;1.15;0.30;;;17.80;81.90;;;;;;4994370;28;20018;-77
2021/06/23 00:37:38;;;;;;;1.58;0.30;;;17.90;81.50;;;;;;4994003;28;20030;-77
2021/06/23 00:40:05;;;;;;;0.20;0.20;;;17.90;81.30;;;;;;4994063;28;20124;-78
2021/06/23 00:42:32;;;;;;;1.52;0.50;;;17.90;81.30;;;;;;4994079;28;20031;-78
2021/06/23 00:44:58;;;;;;;0.22;0.22;;;17.90;81.40;;;;;;4994152;28;20045;-78
2021/06/23 00:47:27;;;;;;;0.60;0.40;;;17.90;81.40;;;;;;4994156;28;20418;-78
2021/06/23 00:49:53;;;;;;;0.32;0.30;;;18.00;81.30;;;;;;4993616;28;20026;-78
2021/06/23 00:52:19;;;;;;;1.88;0.50;;;18.00;80.70;;;;;;4993943;28;20038;-79
2021/06/23 00:54:52;;;;;;;1.73;0.60;;;17.90;80.30;;;;;;5000976;28;20034;-77
2021/06/23 00:57:20;;;;;;;3.22;0.43;;;17.90;80.50;;;;;;4997291;28;20053;-78
2021/06/23 00:59:51;;;;;;;1.70;0.40;;;17.90;80.60;;;;;;4992551;28;20430;-78
2021/06/23 01:02:19;;;;;;;1.75;0.50;;;17.70;81.00;;;;;;4993752;28;20080;-78
2021/06/23 01:04:46;;;;;;;1.05;0.50;;;17.60;80.90;;;;;;4993794;28;20029;-78
2021/06/23 01:07:13;;;;;;;1.45;0.40;;;17.60;81.50;;;;;;4993820;28;20065;-77
2021/06/23 01:09:39;;;;;;;0.98;0.60;;;17.50;81.70;;;;;;4993852;28;20018;-78
2021/06/23 01:12:41;;;;;;;0.68;0.50;;;17.30;82.20;;;;;;4993599;28;20045;-77
2021/06/23 01:15:07;;;;;;;1.55;0.75;;;17.30;83.50;;;;;;4993594;28;20417;-77
2021/06/23 01:17:34;;;;;;;0.82;0.50;;;17.30;83.40;;;;;;4993596;28;20018;-77
2021/06/23 01:20:11;;;;;;;0.35;0.35;;;17.30;84.00;;;;;;4993687;28;20022;-77
2021/06/23 01:22:42;;;;;;;0.90;0.40;;;17.30;83.90;;;;;;4993368;28;20069;-76
2021/06/23 01:25:10;;;;;;;1.60;0.45;;;17.40;83.90;;;;;;4993510;28;20513;-76
2021/06/23 01:27:37;;;;;;;3.03;0.82;;;17.40;83.60;;;;;;4993431;28;20632;-77
2021/06/23 01:30:05;;;;;;;4.47;0.57;;;17.50;83.70;;;;;;4993413;28;20495;-77
2021/06/23 01:32:31;;;;;;;0.52;0.50;;;17.40;83.70;;;;;;4993130;28;20407;-77
2021/06/23 01:34:57;;;;;;;3.10;0.50;;;17.40;83.70;;;;;;4993367;28;20023;-78
2021/06/23 01:37:23;;;;;;;0.70;0.52;;;17.50;83.60;;;;;;4993209;28;20035;-77
2021/06/23 01:39:49;;;;;;;1.55;0.60;;;17.50;83.70;;;;;;4993012;28;20051;-77
2021/06/23 01:42:14;;;;;;;0.50;0.50;;;17.50;84.00;;;;;;4993122;28;20455;-76
2021/06/23 01:44:40;;;;;;;1.02;0.65;;;17.50;84.30;;;;;;4993151;28;20042;-77
2021/06/23 01:47:06;;;;;;;0.80;0.80;;;17.60;84.90;;;;;;4993232;28;20526;-77
2021/06/23 01:49:31;;;;;;;2.70;0.82;;;17.60;84.60;;;;;;4993098;28;20117;-78
2021/06/23 01:51:57;;;;;;;2.10;1.23;;;17.70;84.70;;;;;;4993097;28;20042;-78
2021/06/23 01:54:23;;;;;;;2.55;1.60;;;17.70;84.60;;;;;;4993199;28;20049;-77
2021/06/23 01:56:48;;;;;;;2.45;1.58;;;17.70;85.00;;;;;;4993096;28;20058;-78
2021/06/23 01:59:14;;;;;;;1.13;1.02;;;17.70;84.80;;;;;;4993048;28;20019;-77
2021/06/23 02:02:01;;;;;;;1.95;1.42;;;17.80;84.60;;;;;;4995419;28;20085;-77
2021/06/23 02:05:04;;;;;;;1.38;1.27;;;17.80;84.70;;;;;;4996925;28;20383;-77
2021/06/23 02:07:51;;;;;;;1.80;1.70;;;17.80;84.70;;;;;;4976146;28;20031;-77
2021/06/23 02:10:41;;;;;;;2.60;2.00;;;17.80;84.50;;;;;;4996763;28;20077;-77
2021/06/23 02:13:28;;;;;;;3.15;2.15;;;17.80;84.20;;;;;;4996933;28;20042;-77
2021/06/23 02:15:57;;;;;;;4.43;2.28;;;17.80;84.70;;;;;;4996869;28;20014;-76
2021/06/23 02:18:27;;;;;;;2.22;2.03;;;17.80;84.70;;;;;;4996789;28;20033;-75
2021/06/23 02:20:56;;;;;;;4.93;2.20;;;17.80;84.30;;;;;;4996757;28;20030;-77
2021/06/23 02:23:22;;;;;;;4.50;1.85;;;17.80;83.40;;;;;;4996806;28;20030;-77
2021/06/23 02:25:48;;;;;;;3.67;1.92;;;17.80;83.40;;;;;;4995510;28;20487;-76
2021/06/23 02:28:14;;;;;;;4.32;2.03;;;17.80;83.70;;;;;;4996669;28;20437;-77
2021/06/23 02:30:40;;;;;;;2.20;1.90;;;17.80;83.90;;;;;;4996753;28;20506;-77
2021/06/23 02:33:08;;;;;;;2.97;2.20;;;17.70;84.20;;;;;;4996449;28;20034;-77
2021/06/23 02:35:36;;;;;;;2.33;1.88;;;17.80;84.30;;;;;;4996723;28;20022;-84
2021/06/23 02:38:03;;;;;;;7.68;2.28;;;17.80;84.40;;;;;;4998384;28;20030;-86
2021/06/23 02:40:29;;;;;;;3.33;2.03;;;17.80;85.90;;;;;;4997327;28;20085;-88
2021/06/23 02:42:55;;;;;;;3.15;2.85;;;17.90;86.10;;;;;;4997712;28;20415;-87
2021/06/23 02:45:25;;;;;;;4.38;2.38;;;18.00;85.00;;;;;;4997713;28;20037;-88
2021/06/23 02:47:52;;;;;;;5.80;2.17;;;18.00;84.70;;;;;;4997364;28;20074;-88
2021/06/23 02:50:18;;;;;;;3.15;2.05;;;18.10;84.00;;;;;;4997574;28;20534;-87
2021/06/23 02:52:44;;;;;;;4.75;2.60;;;18.10;84.00;;;;;;4997216;28;20038;-87
2021/06/23 02:55:10;;;;;;;4.28;2.60;;;18.00;83.90;;;;;;4997408;28;20019;-86
2021/06/23 02:57:37;;;;;;;2.88;2.67;;;18.00;84.00;;;;;;5012215;28;20391;-87
2021/06/23 03:00:06;;;;;;;5.20;3.00;;;18.00;84.20;;;;;;4996879;28;20080;-86
2021/06/23 03:02:32;;;;;;;4.40;3.00;;;18.00;84.10;;;;;;4996751;28;20113;-86
2021/06/23 03:04:58;;;;;;;4.50;2.88;;;18.10;83.60;;;;;;5011675;28;20018;-87
2021/06/23 03:07:24;;;;;;;3.00;2.63;;;18.00;83.30;;;;;;4996693;28;20042;-87
2021/06/23 03:09:49;;;;;;;3.15;2.75;;;18.10;83.60;;;;;;4996894;28;20028;-86
2021/06/23 03:12:16;;;;;;;2.67;2.38;;;18.10;83.50;;;;;;4995446;28;20034;-88
2021/06/23 03:14:42;;;;;;;3.45;2.75;;;18.20;83.30;;;;;;5006799;28;20037;-86
2021/06/23 03:17:09;;;;;;;4.03;2.80;;;18.20;83.10;;;;;;5010895;28;20030;-86
2021/06/23 03:19:35;;;;;;;4.47;2.58;;;18.20;83.20;;;;;;5005717;28;20038;-84
2021/06/23 03:22:08;;;;;;;2.90;2.47;;;18.30;82.70;;;;;;5005688;28;20038;-87
2021/06/23 03:24:37;;;;;;;5.30;2.45;;;18.30;82.50;;;;;;5004015;28;20022;-87
2021/06/23 03:27:03;;;;;;;6.35;2.78;;;18.30;82.70;;;;;;4997267;28;20108;-87
2021/06/23 03:29:33;;;;;;;5.57;2.30;;;18.30;82.60;;;;;;4996261;28;20414;-86
2021/06/23 03:32:00;;;;;;;5.43;3.00;;;18.30;82.90;;;;;;4996124;28;20057;-86
2021/06/23 03:34:27;;;;;;;4.57;3.00;;;18.30;82.60;;;;;;4996368;28;20034;-86
2021/06/23 03:36:52;;;;;;;3.30;2.60;;;18.20;82.40;;;;;;4996865;28;20034;-87
2021/06/23 03:39:19;;;;;;;4.45;3.17;;;18.20;82.90;;;;;;4996397;28;20072;-87
2021/06/23 03:41:45;;;;;;;2.60;2.00;;;18.20;82.80;;;;;;4996126;28;20077;-87
2021/06/23 03:44:10;;;;;;;3.00;2.67;;;18.20;83.10;;;;;;4996805;28;20058;-86
2021/06/23 03:46:36;;;;;;;4.05;2.53;;;18.30;83.40;;;;;;4996550;28;20073;-86
2021/06/23 03:49:03;;;;;;;4.57;2.70;;;18.30;83.20;;;;;;4995916;28;20085;-87
2021/06/23 03:51:28;;;;;;;4.22;3.40;;;18.30;82.70;;;;;;4995867;28;20030;-89
2021/06/23 03:53:54;;;;;;;4.72;3.70;;;18.20;82.40;;;;;;4995786;28;20042;-86
2021/06/23 03:56:20;;;;;;;4.10;3.70;;;18.20;82.70;;;;;;4995851;28;20029;-85
2021/06/23 03:58:45;;;;;;;5.38;3.50;;;18.10;83.20;;;;;;4995460;28;20030;-79
2021/06/23 04:01:11;;;;;;;3.53;2.78;;;18.00;83.70;;;;;;4995378;28;20026;-85
2021/06/23 04:03:37;;;;;;;3.38;2.65;;;18.00;84.00;;;;;;4995477;28;20490;-85
2021/06/23 04:06:02;;;;;;;4.50;2.70;;;18.10;83.80;;;;;;4995605;28;20022;-86
2021/06/23 04:08:28;;;;;;;4.88;3.60;;;18.20;83.40;;;;;;4995676;28;20030;-82
2021/06/23 04:10:54;;;;;;;4.60;3.28;;;18.10;82.70;;;;;;4995355;28;20037;-84
2021/06/23 04:13:19;;;;;;;3.85;3.47;;;18.00;82.90;;;;;;4996891;28;20027;-86
2021/06/23 04:15:45;;;;;;;5.65;3.35;;;18.00;82.90;;;;;;4995538;28;20026;-83
2021/06/23 04:18:11;;;;;;;3.90;3.35;;;17.90;83.10;;;;;;5010531;28;20037;-85
2021/06/23 04:20:36;;;;;;;4.70;3.15;;;17.80;83.40;;;;;;5009876;28;20038;-84
2021/06/23 04:23:02;;;;;;;6.43;2.80;;;17.80;83.70;;;;;;4994790;28;20061;-85
2021/06/23 04:25:28;;;;;;;2.78;2.53;;;17.80;84.00;;;;;;5009183;28;20443;-87
2021/06/23 04:27:53;;;;;;;3.20;2.90;;;17.90;84.00;;;;;;4994825;28;20030;-86
2021/06/23 04:30:19;;;;;;;3.38;2.63;;;18.00;83.50;;;;;;4994588;28;20105;-86
2021/06/23 04:32:45;;;;;;;6.43;2.70;;;18.10;83.40;;;;;;4994402;28;20039;-84
2021/06/23 04:35:11;;;;;;;4.82;3.40;;;18.20;83.00;;;;;;4994601;28;20517;-87
2021/06/23 04:37:40;;;;;;;3.47;2.28;;;18.20;82.40;;;;;;4994242;28;20026;-82
2021/06/23 04:40:09;;;;;;;4.70;2.47;;;18.20;82.50;;;;;;4994321;28;20042;-84
2021/06/23 04:42:35;;;;;;;2.50;2.13;;;18.30;82.70;;;;;;4994454;28;20030;-84
2021/06/23 04:45:01;;;;;;;3.80;2.40;;;18.30;82.40;;;;;;4994293;28;20092;-85
2021/06/23 04:47:27;;;;;;;2.47;2.28;;;18.40;82.00;;;;;;4993348;28;20027;-83
2021/06/23 04:49:52;;;;;;;4.43;2.47;;;18.50;81.70;;;;;;4994643;28;20042;-84
2021/06/23 04:52:18;;;;;;;2.38;2.13;;;18.60;81.20;;;;;;4994229;28;20069;-84
2021/06/23 04:54:43;;;;;;;4.57;2.25;;;18.60;80.50;;;;;;5009392;28;20023;-84
2021/06/23 04:57:09;;;;;;;4.50;2.17;;;18.60;80.10;;;;;;4992656;28;20030;-84
2021/06/23 04:59:35;;;;;;;3.58;1.83;;;18.60;79.90;;;;;;4993766;28;20023;-83
2021/06/23 05:02:00;;;;;;;2.03;1.73;;;18.50;79.80;;;;;;4993744;28;20022;-82
2021/06/23 05:04:26;;;;;;;2.03;1.73;;;18.50;79.80;;;;;;4993890;28;20033;-84
2021/06/23 05:06:52;;;;;;;3.03;1.90;;;18.50;79.30;;;;;;5009554;28;20483;-82
2021/06/23 05:09:17;;;;;;;3.72;2.20;;;18.50;79.40;;;;;;4994334;28;20033;-85
2021/06/23 05:11:43;;;;;;;2.13;1.60;;;18.40;79.40;;;;;;4994084;28;20030;-86
2021/06/23 05:14:10;;;;;;;2.35;1.50;;;18.50;79.50;;;;;;4994246;28;20031;-85
2021/06/23 05:16:37;;;;;;;2.55;1.63;;;18.50;79.20;;;;;;4994112;28;20026;-87
2021/06/23 05:19:04;;;;;;;3.33;1.40;;;18.70;78.10;;;;;;4993854;28;20041;-83
2021/06/23 05:21:34;;;;;;;4.72;1.50;;;18.90;76.70;;;;;;4992438;28;20390;-85
2021/06/23 05:24:01;;;;;;;3.35;1.42;;;19.00;76.30;;;;;;4994159;28;20018;-87
2021/06/23 05:26:26;;;;;;;3.40;1.58;;;19.20;75.90;;;;;;4994595;28;20030;-85
2021/06/23 05:28:52;;;;;;;2.97;1.00;;;19.20;76.10;;;;;;4993829;28;20105;-84
2021/06/23 05:31:17;;;;;;;4.20;1.63;;;19.40;75.90;;;;;;4993119;28;20038;-83
2021/06/23 05:33:43;;;;;;;1.55;1.20;;;19.50;75.80;;;;;;4993485;28;20030;-85
2021/06/23 05:36:08;;;;;;;2.35;0.90;;;19.60;75.50;;;;;;4994786;28;20030;-82
2021/06/23 05:38:34;;;;;;;1.50;0.95;;;19.60;74.80;;;;;;4998652;28;20022;-82
2021/06/23 05:41:00;;;;;;;4.80;0.80;;;19.60;73.90;;;;;;5025747;28;20454;-84
2021/06/23 05:43:25;;;;;;;2.30;1.00;;;19.70;73.50;;;;;;4995810;28;20023;-85
2021/06/23 05:45:51;;;;;;;3.38;1.10;;;19.80;73.50;;;;;;4994668;28;20446;-86
2021/06/23 05:48:17;;;;;;;1.13;0.80;;;20.00;73.60;;;;;;4994028;28;20138;-85
2021/06/23 05:50:44;;;;;;;1.10;0.90;;;20.20;73.40;;;;;;4994388;28;20509;-84
2021/06/23 05:53:09;;;;;;;2.40;1.08;;;20.30;72.70;;;;;;5008831;28;20049;-83
2021/06/23 05:55:37;;;;;;;1.88;0.80;;;20.40;72.20;;;;;;4994441;28;20026;-86
2021/06/23 05:58:03;;;;;;;0.95;0.70;;;20.60;71.90;;;;;;4996375;28;20106;-84
2021/06/23 06:00:29;;;;;;;3.17;1.00;;;20.70;71.70;;;;;;4993639;28;20026;-85
2021/06/23 06:02:54;;;;;;;1.05;0.60;;;20.80;71.60;;;;;;4993479;28;20426;-83
2021/06/23 06:05:20;;;;;;;3.10;0.80;;;20.90;71.20;;;;;;5008908;28;20026;-86
2021/06/23 06:07:47;;;;;;;1.48;0.70;;;21.00;69.10;;;;;;4993494;28;20018;-86
2021/06/23 06:10:13;;;;;;;0.98;0.90;;;20.90;68.10;;;;;;4993558;28;20053;-83
2021/06/23 06:12:39;;;;;;;1.38;0.95;;;20.90;68.40;;;;;;4993236;28;20039;-83
2021/06/23 06:15:06;;;;;;;3.20;0.60;;;21.00;67.60;;;;;;4993197;28;20543;-86
2021/06/23 06:17:32;;;;;;;3.45;0.82;;;21.00;67.20;;;;;;4993155;28;20033;-81
2021/06/23 06:19:57;;;;;;;0.40;0.40;;;21.00;67.50;;;;;;4993080;28;20414;-84
2021/06/23 06:22:24;;;;;;;3.22;0.68;;;21.10;66.50;;;;;;4993089;28;20137;-84
2021/06/23 06:24:50;;;;;;;2.25;0.80;;;21.10;67.80;;;;;;4992899;28;20370;-84
2021/06/23 06:27:15;;;;;;;1.48;0.80;;;21.10;66.80;;;;;;4991648;28;20027;-84
2021/06/23 06:29:41;;;;;;;0.60;0.60;;;21.10;66.90;;;;;;4993383;28;20364;-86
2021/06/23 06:32:07;;;;;;;1.75;0.80;;;21.20;65.70;;;;;;5007965;28;20034;-84
2021/06/23 06:34:32;;;;;;;4.60;0.75;;;21.20;65.80;;;;;;5008566;28;20446;-82
2021/06/23 06:36:58;;;;;;;0.60;0.60;;;21.30;66.20;;;;;;5007700;28;20026;-80
2021/06/23 06:39:24;;;;;;;1.48;0.70;;;21.30;66.40;;;;;;4992875;28;20023;-82
2021/06/23 06:41:49;;;;;;;1.65;0.60;;;21.40;66.50;;;;;;4993064;28;20498;-82
2021/06/23 06:44:15;;;;;;;0.90;0.50;;;21.50;66.80;;;;;;5007991;28;20029;-81
2021/06/23 06:46:42;;;;;;;2.08;0.75;;;21.70;66.60;;;;;;4992836;28;20022;-83
2021/06/23 06:49:08;;;;;;;2.65;0.85;;;21.90;66.30;;;;;;4995939;28;20109;-81
2021/06/23 06:51:34;;;;;;;8.07;2.53;;;22.00;66.00;;;;;;4996378;28;20126;-82
2021/06/23 06:53:59;;;;;;;8.23;1.88;;;22.10;65.60;;;;;;4996461;28;20160;-82
2021/06/23 06:56:25;;;;;;;3.92;1.20;;;22.30;65.10;;;;;;4996237;28;20045;-81
2021/06/23 06:58:51;;;;;;;4.22;1.25;;;22.40;64.60;;;;;;4996469;28;20030;-82
2021/06/23 07:01:17;;;;;;;1.30;0.95;;;22.50;64.20;;;;;;4996245;28;20105;-83
2021/06/23 07:03:42;;;;;;;1.85;0.90;;;22.60;63.60;;;;;;4996254;28;20018;-82
2021/06/23 07:06:08;;;;;;;2.08;0.70;;;22.60;63.00;;;;;;4996200;28;20033;-81
2021/06/23 07:08:33;;;;;;;5.15;0.80;;;22.60;62.90;;;;;;5011038;28;20027;-82
2021/06/23 07:10:59;;;;;;;8.60;1.40;;;22.70;63.20;;;;;;4996154;28;20069;-79
2021/06/23 07:13:25;;;;;;;3.70;0.68;;;22.90;62.70;;;;;;4996290;28;20042;-80
2021/06/23 07:15:50;;;;;;;9.38;1.67;;;23.00;62.10;;;;;;4996367;28;20058;-80
2021/06/23 07:18:16;;;;;;;2.92;0.88;;;23.20;61.30;;;;;;4996118;28;20037;-81
2021/06/23 07:20:42;;;;;;;6.00;1.55;;;23.20;60.10;;;;;;4996302;28;20026;-83
2021/06/23 07:23:07;;;;;;;2.75;0.85;;;23.20;60.30;;;;;;4994820;28;20034;-80
2021/06/23 07:25:33;;;;;;;6.07;1.00;;;23.30;60.10;;;;;;4996194;28;20054;-82
2021/06/23 07:27:58;;;;;;;2.67;0.90;;;23.40;59.80;;;;;;5001376;28;20026;-87
2021/06/23 07:30:24;;;;;;;0.70;0.70;;;23.40;59.70;;;;;;5006812;28;20030;-86
2021/06/23 07:32:53;;;;;;;3.92;1.83;;;23.50;59.50;;;;;;4999907;28;20041;-86
2021/06/23 07:38:07;;;;;;;2.85;0.88;;;23.80;59.10;;;;;;4996406;28;20037;-80
2021/06/23 07:40:58;;;;;;;1.23;0.93;;;23.80;58.80;;;;;;4994537;28;20138;-83
2021/06/23 07:43:22;;;;;;;3.15;0.57;;;23.90;58.50;;;;;;4995478;28;20042;-89
2021/06/23 07:45:51;;;;;;;1.60;0.77;;;24.10;57.80;;;;;;4996534;28;20023;-86
2021/06/23 07:48:20;;;;;;;2.67;0.60;;;24.20;57.20;;;;;;4996233;28;20106;-83
2021/06/23 07:50:51;;;;;;;2.75;0.70;;;24.30;57.60;;;;;;4995181;28;20022;-88
2021/06/23 07:53:26;;;;;;;1.75;0.70;;;24.40;56.70;;;;;;4996285;28;20035;-87
2021/06/23 07:56:06;;;;;;;1.17;0.60;;;24.30;55.60;;;;;;4996145;28;20387;-87
2021/06/23 08:11:38;;;;;;;2.22;0.90;;;23.30;59.00;;;;;;4995729;28;20466;-86
2021/06/23 08:14:04;;;;;;;1.33;0.73;;;23.30;59.60;;;;;;4996191;28;20025;-88
2021/06/23 08:16:32;;;;;;;0.70;0.70;;;23.50;59.50;;;;;;4995821;28;20027;-86
2021/06/23 08:18:57;;;;;;;1.38;0.73;;;23.20;60.20;;;;;;4995352;28;20030;-80
2021/06/23 08:21:23;;;;;;;1.02;0.80;;;23.00;60.20;;;;;;4995261;28;20022;-84
2021/06/23 08:23:49;;;;;;;1.00;0.90;;;23.00;60.20;;;;;;4995232;28;20065;-79
2021/06/23 08:26:14;;;;;;;1.10;1.00;;;23.10;60.10;;;;;;4995276;28;20450;-83
2021/06/23 08:28:40;;;;;;;1.85;1.02;;;23.10;60.80;;;;;;5010150;28;20028;-82
2021/06/23 08:31:05;;;;;;;1.50;1.10;;;23.00;60.20;;;;;;5004412;28;20088;-83
2021/06/23 08:33:31;;;;;;;1.92;1.10;;;22.90;60.80;;;;;;5013387;28;20029;-83
2021/06/23 08:35:57;;;;;;;1.67;0.77;;;22.80;60.90;;;;;;5013312;28;20026;-83
2021/06/23 08:38:23;;;;;;;1.58;1.00;;;22.80;61.40;;;;;;5015439;28;20034;-84
2021/06/23 08:40:49;;;;;;;2.92;0.90;;;22.70;61.90;;;;;;5029336;28;20057;-83
2021/06/23 08:43:19;;;;;;;2.80;1.00;;;22.60;62.20;;;;;;5035182;28;20006;-83
2021/06/23 08:45:45;;;;;;;1.77;1.02;;;22.70;62.30;;;;;;5030006;28;20018;-83
2021/06/23 08:48:12;;;;;;;1.60;1.05;;;22.70;61.80;;;;;;5017985;28;20028;-83
2021/06/23 08:50:38;;;;;;;2.45;1.10;;;22.90;60.90;;;;;;5013595;28;20022;-83
2021/06/23 08:53:04;;;;;;;2.17;0.93;;;23.00;60.70;;;;;;5013211;28;20044;-84
2021/06/23 08:55:30;;;;;;;2.42;0.90;;;23.20;60.10;;;;;;5012554;28;20494;-82
2021/06/23 08:57:59;;;;;;;1.98;1.00;;;23.50;59.50;;;;;;5013760;28;20053;-84
2021/06/23 09:00:25;;;;;;;1.52;0.90;;;23.80;58.90;;;;;;5010036;28;20026;-83
2021/06/23 09:02:51;;;;;;;0.75;0.70;;;24.10;57.30;;;;;;5004564;28;20044;-84
2021/06/23 09:05:18;;;;;;;3.35;1.08;;;23.80;56.90;;;;;;5035438;28;20032;-84
2021/06/23 09:07:48;;;;;;;2.65;0.75;;;23.50;57.40;;;;;;5021810;28;20033;-83
2021/06/23 09:10:23;;;;;;;2.63;0.73;;;23.50;57.20;;;;;;5023049;28;20120;-83
2021/06/23 09:13:01;;;;;;;1.02;0.73;;;23.70;56.90;;;;;;5023040;28;20037;-83
2021/06/23 09:15:50;;;;;;;1.15;0.60;;;23.80;57.30;;;;;;5005885;28;20065;-85
2021/06/23 09:18:16;;;;;;;1.88;1.00;;;23.80;56.50;;;;;;5010638;28;20030;-82
2021/06/23 09:21:01;;;;;;;1.52;0.70;;;24.00;56.70;;;;;;5008294;28;20031;-86
2021/06/23 09:23:44;;;;;;;0.85;0.60;;;24.30;56.00;;;;;;5011473;28;20391;-84
2021/06/23 09:26:37;;;;;;;0.45;0.45;;;24.60;54.50;;;;;;5010334;28;20052;-84
2021/06/23 09:29:12;;;;;;;0.52;0.52;;;24.90;52.30;;;;;;4989786;28;20451;-84
2021/06/23 09:32:21;;;;;;;0.55;0.52;;;25.30;52.10;;;;;;4993912;28;20037;-83
2021/06/23 09:34:50;;;;;;;0.60;0.60;;;25.50;50.50;;;;;;4933485;29;20493;-83
2021/06/23 09:37:26;;;;;;;0.98;0.52;;;25.70;50.40;;;;;;4933759;29;20066;-84
2021/06/23 09:40:16;;;;;;;0.73;0.45;;;25.70;49.00;;;;;;4976910;28;20050;-84
2021/06/23 09:42:48;;;;;;;0.45;0.45;;;26.00;49.50;;;;;;4992410;28;20029;-84
2021/06/23 09:45:17;;;;;;;0.63;0.50;;;26.20;48.80;;;;;;5008710;28;20114;-83
2021/06/23 09:47:46;;;;;;;1.90;0.60;;;26.30;48.70;;;;;;4993656;28;20092;-83
2021/06/23 09:50:21;;;;;;;0.52;0.47;;;26.30;46.10;;;;;;5008861;28;20026;-83
2021/06/23 09:53:02;;;;;;;0.90;0.50;;;26.20;46.60;;;;;;5008584;28;20039;-83
2021/06/23 09:55:48;;;;;;;0.75;0.60;;;26.20;46.10;;;;;;5008655;28;20026;-84
2021/06/23 09:58:23;;;;;;;0.68;0.43;;;25.90;46.80;;;;;;5008601;28;20041;-80
2021/06/23 10:01:10;;;;;;;0.70;0.60;;;25.90;47.20;;;;;;4993530;28;20533;-81
2021/06/23 10:03:58;;;;;;;3.28;0.57;;;25.50;47.90;;;;;;4993205;28;20589;-76
2021/06/23 10:06:30;;;;;;;1.95;0.40;;;25.20;48.80;;;;;;4992950;28;20105;-77
2021/06/23 10:09:27;;;;;;;1.85;1.38;;;24.90;49.70;;;;;;4992629;28;20027;-77
2021/06/23 10:12:02;;;;;;;1.17;0.80;;;24.90;50.80;;;;;;4992478;28;20136;-76
2021/06/23 10:14:33;;;;;;;;;;;24.80;51.60;;;;;;4993272;28;20030;-76
2021/06/23 10:17:00;;;;;;;2.05;0.77;;;24.80;51.40;;;;;;4992709;28;20319;-79
2021/06/23 10:19:27;;;;;;;1.10;0.52;;;24.90;52.40;;;;;;4993461;28;20098;-79
2021/06/23 10:21:54;;;;;;;0.63;0.50;;;25.00;51.40;;;;;;4992762;28;20018;-79
2021/06/23 10:24:20;;;;;;;2.05;0.73;;;25.00;51.80;;;;;;4995673;28;20072;-80
2021/06/23 10:26:48;;;;;;;1.23;0.50;;;25.10;51.30;;;;;;4996746;28;20504;-78
2021/06/23 10:29:19;;;;;;;4.22;0.63;;;25.20;51.90;;;;;;4996763;28;20106;-80
2021/06/23 10:31:46;;;;;;;8.52;1.13;;;25.30;50.90;;;;;;4996526;28;20184;-80
2021/06/23 10:34:11;;;;;;;10.52;2.53;;;25.40;50.90;;;;;;4996732;28;20109;-78
2021/06/23 10:36:38;;;;;;;26.73;4.25;;;25.30;50.90;;;;;;4996990;28;20050;-78
2021/06/23 10:39:05;;;;;;;22.05;1.95;;;25.30;50.80;;;;;;4996534;28;20027;-78
2021/06/23 10:41:39;;;;;;;13.13;2.25;;;25.30;50.70;;;;;;4996529;28;20121;-76
2021/06/23 10:44:25;;;;;;;21.73;2.80;;;25.20;51.20;;;;;;4996847;28;20378;-80
2021/06/23 10:46:55;;;;;;;1.52;0.98;;;24.90;51.50;;;;;;4996489;28;20027;-80
2021/06/23 10:49:39;;;;;;;3.67;0.80;;;24.90;51.40;;;;;;4996293;28;20046;-80
2021/06/23 10:52:20;;;;;;;5.95;1.40;;;24.20;53.10;;;;;;4996287;28;20034;-79
2021/06/23 10:54:49;;;;;;;3.38;0.80;;;24.00;54.60;;;;;;4996092;28;20471;-81
2021/06/23 10:57:32;;;;;;;3.95;0.77;;;24.00;55.00;;;;;;4996579;28;20023;-79
2021/06/23 11:00:21;;;;;;;2.42;0.88;;;24.10;54.50;;;;;;4996493;28;20029;-81
2021/06/23 11:03:01;;;;;;;1.40;0.85;;;24.10;54.20;;;;;;4996616;28;20030;-81
2021/06/23 11:05:48;;;;;;;4.75;0.95;;;24.10;54.50;;;;;;4999231;28;20485;-81
2021/06/23 11:08:23;;;;;;;1.08;0.52;;;24.10;55.00;;;;;;4996362;28;20035;-81
2021/06/23 11:10:50;;;;;;;2.58;1.00;;;24.20;54.50;;;;;;5001457;28;20475;-77
2021/06/23 11:13:24;;;;;;;1.35;0.85;;;24.20;53.80;;;;;;4997081;28;20079;-80
2021/06/23 11:15:51;;;;;;;0.82;0.50;;;24.20;54.20;;;;;;5008600;28;20089;-80
2021/06/23 11:18:25;;;;;;;3.08;0.75;;;24.20;54.30;;;;;;5015792;28;20494;-78
2021/06/23 11:21:21;;;;;;;1.83;1.23;;;24.10;53.70;;;;;;5001027;28;20023;-81
2021/06/23 11:23:58;;;;;;;2.10;1.00;;;24.10;54.30;;;;;;4987575;28;20113;-80
2021/06/23 11:26:24;;;;;;;2.88;2.30;;;24.10;54.80;;;;;;4998067;28;20027;-81
2021/06/23 11:28:57;;;;;;;3.22;1.60;;;24.20;55.10;;;;;;4997392;28;20168;-82
2021/06/23 11:31:43;;;;;;;0.80;0.70;;;24.20;55.10;;;;;;4996844;28;20038;-76
2021/06/23 11:34:10;;;;;;;2.17;0.30;;;24.20;55.10;;;;;;4996383;28;20057;-78
2021/06/23 11:36:36;;;;;;;1.95;0.90;;;24.20;55.60;;;;;;4996806;28;20370;-78
2021/06/23 11:39:03;;;;;;;2.17;0.68;;;24.00;58.80;;;;;;4996380;28;20023;-76
2021/06/23 11:41:29;;;;;;;3.60;0.90;;;23.80;59.50;;;;;;4996220;28;20054;-76
2021/06/23 11:43:54;;;;;;;1.85;0.60;;;23.60;62.40;;;;;;4996156;28;20026;-76
2021/06/23 11:46:20;;;;;;;2.47;0.77;;;23.50;62.50;;;;;;4996018;28;20023;-77
2021/06/23 11:48:46;;;;;;;1.23;0.80;;;23.20;65.00;;;;;;4996718;28;20023;-76
2021/06/23 11:51:12;;;;;;;1.60;1.00;;;23.20;65.00;;;;;;4996117;28;20027;-76
2021/06/23 11:53:39;;;;;;;1.38;0.80;;;23.40;66.90;;;;;;4996239;28;20035;-77
2021/06/23 11:56:05;;;;;;;1.00;0.75;;;23.40;69.40;;;;;;4996927;28;20078;-76
2021/06/23 11:58:31;;;;;;;1.20;0.60;;;23.60;67.40;;;;;;4996439;28;20034;-76
2021/06/23 12:00:56;;;;;;;1.95;0.60;;;23.60;65.10;;;;;;4995602;28;20386;-77
2021/06/23 12:03:22;;;;;;;2.55;0.65;;;23.40;66.20;;;;;;4995562;28;20019;-76
2021/06/23 12:05:49;;;;;;;1.60;0.60;;;23.00;65.00;;;;;;4995346;28;20355;-76
2021/06/23 12:08:16;;;;;;;0.73;0.50;;;23.00;65.60;;;;;;4995059;28;20022;-76
2021/06/23 12:10:42;;;;;;;0.45;0.40;;;23.10;62.20;;;;;;4995159;28;20386;-77
2021/06/23 12:13:10;;;;;;;5.00;0.57;;;23.10;64.40;;;;;;4994962;28;20039;-77
2021/06/23 12:15:36;;;;;;;2.13;0.90;;;23.50;62.80;;;;;;4995002;28;20422;-76
2021/06/23 12:18:04;;;;;;;0.93;0.68;;;24.10;62.50;;;;;;5009953;28;20490;-75
2021/06/23 12:20:31;;;;;;;3.53;0.65;;;24.30;61.20;;;;;;4995264;28;20096;-76
2021/06/23 12:22:59;;;;;;;3.58;0.77;;;24.50;64.30;;;;;;4995263;28;20101;-75
2021/06/23 12:25:31;;;;;;;1.23;0.68;;;24.90;61.10;;;;;;4997736;28;20026;-76
2021/06/23 12:27:58;;;;;;;1.17;0.50;;;25.10;55.60;;;;;;5003795;28;20033;-76
2021/06/23 12:30:28;;;;;;;1.15;0.60;;;25.00;54.90;;;;;;5014502;28;20040;-76
2021/06/23 12:32:58;;;;;;;0.60;0.43;;;25.00;54.90;;;;;;5014339;28;20045;-76
2021/06/23 12:35:25;;;;;;;0.88;0.45;;;25.30;55.80;;;;;;5014505;28;20076;-77
2021/06/23 12:37:51;;;;;;;0.90;0.50;;;25.30;56.30;;;;;;5014380;28;20474;-77
2021/06/23 12:40:17;;;;;;;0.30;0.30;;;25.40;53.50;;;;;;5014109;28;20046;-77
2021/06/23 12:42:43;;;;;;;1.52;0.55;;;25.50;52.40;;;;;;5013952;28;20033;-78
2021/06/23 12:45:09;;;;;;;0.95;0.30;;;25.90;53.40;;;;;;5013261;28;20022;-77
2021/06/23 12:47:35;;;;;;;0.63;0.40;;;26.10;49.70;;;;;;5014165;28;20068;-78
2021/06/23 12:50:01;;;;;;;0.75;0.40;;;26.50;50.80;;;;;;5014330;28;20025;-79
2021/06/23 12:52:26;;;;;;;0.57;0.38;;;27.10;51.20;;;;;;5013914;28;20455;-78
2021/06/23 12:54:52;;;;;;;0.85;0.40;;;27.60;48.70;;;;;;5014178;28;20032;-78
2021/06/23 12:57:17;;;;;;;0.73;0.30;;;27.80;44.50;;;;;;5013859;28;20084;-78
2021/06/23 12:59:44;;;;;;;2.00;0.52;;;27.90;41.80;;;;;;5013848;28;20034;-78
2021/06/23 13:02:09;;;;;;;1.35;0.70;;;28.30;43.80;;;;;;5013881;28;20466;-78
2021/06/23 13:04:35;;;;;;;0.85;0.40;;;28.70;43.30;;;;;;5012284;28;20079;-78
2021/06/23 13:07:00;;;;;;;1.27;0.30;;;28.90;42.00;;;;;;5012372;28;20129;-78
2021/06/23 13:09:26;;;;;;;0.45;0.40;;;28.90;40.50;;;;;;5013730;28;20041;-78
2021/06/23 13:11:52;;;;;;;0.73;0.38;;;28.60;40.50;;;;;;5013476;28;20034;-78